Time;durP1;ratioP1;P1;durP2;ratioP2;P2;SDS_P1;SDS_P2;PMS_P1;PMS_P2;Temp;Humidity;BMP_temperature;BMP_pressure;BME280_temperature;BME280_humidity;BME280_pressure;Samples;Min_cycle;Max_cycle;Signal;HPM_P1;HPM_P2
2021/10/17 00:00:30;;;;;;;17.02;6.97;;;;;;;12.66;59.51;101460.84;5073910;28;20052;-63
2021/10/17 00:02:58;;;;;;;19.48;7.28;;;;;;;12.49;60.12;101461.47;5075331;28;20044;-63
2021/10/17 00:05:27;;;;;;;21.40;7.28;;;;;;;12.41;60.57;101457.47;5092477;28;20051;-63
2021/10/17 00:07:55;;;;;;;16.08;6.28;;;;;;;12.58;60.21;101462.38;5094934;28;20072;-64
2021/10/17 00:10:25;;;;;;;21.90;6.47;;;;;;;12.70;60.00;101465.44;5095023;28;20055;-63
2021/10/17 00:12:54;;;;;;;18.25;7.18;;;;;;;12.86;59.51;101455.69;5093337;28;20047;-63
2021/10/17 00:15:22;;;;;;;21.45;6.93;;;;;;;12.76;59.93;101455.09;5096986;28;20040;-63
2021/10/17 00:17:50;;;;;;;17.50;7.53;;;;;;;12.78;59.95;101456.41;5098817;28;20051;-63
2021/10/17 00:20:19;;;;;;;20.17;7.35;;;;;;;12.68;60.34;101447.50;5098836;28;20570;-63
2021/10/17 00:22:46;;;;;;;21.40;7.93;;;;;;;12.54;60.47;101450.31;5098651;28;20055;-66
2021/10/17 00:25:13;;;;;;;15.77;7.78;;;;;;;12.53;60.61;101448.69;5097188;28;20055;-65
2021/10/17 00:27:41;;;;;;;20.73;7.28;;;;;;;12.42;60.97;101450.84;5098546;28;20048;-67
2021/10/17 00:30:14;;;;;;;18.80;7.45;;;;;;;12.40;61.18;101452.25;5097567;28;20048;-67
2021/10/17 00:32:42;;;;;;;15.43;7.60;;;;;;;12.27;61.64;101451.13;5097646;28;20058;-67
2021/10/17 00:35:14;;;;;;;16.63;7.82;;;;;;;11.99;62.36;101451.44;5097654;28;20051;-66
2021/10/17 00:37:41;;;;;;;25.13;7.90;;;;;;;11.81;63.20;101455.06;5097311;28;20040;-66
2021/10/17 00:40:11;;;;;;;19.30;8.02;;;;;;;11.79;63.41;101455.38;5111885;28;20074;-65
2021/10/17 00:42:40;;;;;;;21.92;7.88;;;;;;;11.91;63.14;101457.63;5117300;28;20074;-66
2021/10/17 00:45:10;;;;;;;20.80;8.18;;;;;;;12.08;62.70;101458.69;5116791;28;20056;-66
2021/10/17 00:47:38;;;;;;;17.00;7.68;;;;;;;11.82;63.21;101457.53;5118662;28;20039;-66
2021/10/17 00:50:07;;;;;;;13.00;6.97;;;;;;;12.09;62.51;101459.50;5117596;28;20451;-66
2021/10/17 00:52:36;;;;;;;13.23;6.80;;;;;;;12.04;62.25;101454.09;5118689;28;20055;-65
2021/10/17 00:55:04;;;;;;;16.02;6.57;;;;;;;12.14;61.58;101451.13;5118400;28;20051;-66
2021/10/17 00:57:33;;;;;;;16.83;6.72;;;;;;;12.35;61.29;101450.44;5118420;28;20600;-66
2021/10/17 01:00:00;;;;;;;14.65;6.47;;;;;;;12.28;61.10;101454.72;5118476;28;20411;-65
2021/10/17 01:02:28;;;;;;;22.15;7.60;;;;;;;12.01;62.01;101446.44;5118411;28;20059;-66
2021/10/17 01:04:55;;;;;;;17.38;7.53;;;;;;;12.16;61.65;101448.88;5116947;28;20048;-66
2021/10/17 01:07:23;;;;;;;15.18;7.35;;;;;;;12.22;61.92;101445.72;5116795;28;20056;-66
2021/10/17 01:09:50;;;;;;;15.80;7.20;;;;;;;12.23;61.65;101438.25;5117011;28;20063;-66
2021/10/17 01:12:21;;;;;;;;;;;;;;;12.24;61.41;101437.09;5099844;28;20522;-67
2021/10/17 01:14:48;;;;;;;17.38;7.63;;;;;;;12.11;62.00;101448.97;5118221;28;19926;-66
2021/10/17 01:17:15;;;;;;;20.27;8.05;;;;;;;11.99;62.59;101446.72;5116623;28;20054;-66
2021/10/17 01:19:46;;;;;;;13.43;7.18;;;;;;;12.11;62.56;101448.97;5116865;28;20086;-66
2021/10/17 01:22:24;;;;;;;19.50;7.57;;;;;;;11.85;63.26;101439.53;5116859;28;20047;-65
2021/10/17 01:24:54;;;;;;;16.25;7.07;;;;;;;12.20;62.60;101431.38;5133884;27;20458;-66
2021/10/17 01:27:22;;;;;;;18.30;7.80;;;;;;;12.37;62.02;101433.53;5114928;28;20047;-65
2021/10/17 01:29:49;;;;;;;18.10;7.70;;;;;;;12.22;62.39;101428.34;5081816;28;20051;-66
2021/10/17 01:32:17;;;;;;;17.55;8.00;;;;;;;12.25;62.36;101431.31;5116477;28;20047;-65
2021/10/17 01:34:44;;;;;;;17.55;7.85;;;;;;;12.15;62.62;101427.94;5133128;27;20054;-65
2021/10/17 01:37:12;;;;;;;18.67;8.50;;;;;;;11.77;63.81;101440.25;5099143;28;20070;-65
2021/10/17 01:39:39;;;;;;;17.83;8.48;;;;;;;12.09;62.99;101438.25;5107100;28;20487;-66
2021/10/17 01:42:06;;;;;;;15.35;7.90;;;;;;;11.99;63.45;101448.66;5096120;28;20056;-66
2021/10/17 01:44:41;;;;;;;16.58;8.30;;;;;;;12.01;63.66;101436.19;5092401;28;20059;-66
2021/10/17 01:47:09;;;;;;;21.20;8.98;;;;;;;11.91;64.04;101435.56;5095464;28;20048;-65
2021/10/17 01:49:36;;;;;;;15.77;8.50;;;;;;;12.01;63.78;101438.16;5079118;28;20052;-66
2021/10/17 01:52:06;;;;;;;19.52;8.73;;;;;;;11.83;64.04;101436.28;5112334;28;20068;-66
2021/10/17 01:54:38;;;;;;;17.42;9.07;;;;;;;11.78;64.71;101430.84;5078326;28;20414;-66
2021/10/17 01:57:05;;;;;;;16.33;8.50;;;;;;;11.91;64.51;101438.31;5078644;28;20043;-65
2021/10/17 01:59:34;;;;;;;17.88;9.05;;;;;;;11.89;64.83;101435.06;5095314;28;20052;-66
2021/10/17 02:02:09;;;;;;;18.33;9.18;;;;;;;11.77;65.16;101440.25;5065233;28;20048;-66
2021/10/17 02:04:38;;;;;;;17.95;9.30;;;;;;;11.87;64.89;101440.84;5058925;28;20052;-66
2021/10/17 02:07:05;;;;;;;20.10;10.10;;;;;;;11.83;65.08;101439.03;5074871;28;20060;-66
2021/10/17 02:09:34;;;;;;;20.90;9.63;;;;;;;11.68;65.52;101439.31;5075306;28;20052;-66
2021/10/17 02:12:03;;;;;;;17.83;9.23;;;;;;;11.91;65.33;101424.50;5075095;28;20040;-67
2021/10/17 02:14:30;;;;;;;18.42;9.18;;;;;;;11.85;65.10;101428.50;5074996;28;20048;-66
2021/10/17 02:17:00;;;;;;;20.02;10.18;;;;;;;11.77;65.49;101429.22;5074708;28;20041;-66
2021/10/17 02:19:27;;;;;;;19.88;10.00;;;;;;;11.85;65.26;101426.56;5075185;28;20044;-66
2021/10/17 02:21:54;;;;;;;15.38;9.38;;;;;;;11.74;65.53;101425.13;5074704;28;20044;-66
2021/10/17 02:24:22;;;;;;;24.08;9.90;;;;;;;11.54;66.21;101424.63;5074795;28;20052;-66
2021/10/17 02:26:52;;;;;;;25.15;9.13;;;;;;;11.52;66.29;101430.44;5074461;28;20051;-65
2021/10/17 02:29:42;;;;;;;19.35;9.70;;;;;;;11.35;67.50;101431.00;5075028;28;20055;-65
2021/10/17 02:32:24;;;;;;;18.15;9.73;;;;;;;11.47;66.96;101424.19;5092120;28;20052;-66
2021/10/17 02:35:01;;;;;;;18.27;9.25;;;;;;;11.65;66.63;101423.34;5059454;28;20053;-66
2021/10/17 02:37:30;;;;;;;21.65;9.45;;;;;;;11.67;66.46;101429.38;5074150;28;20460;-65
2021/10/17 02:39:58;;;;;;;16.37;9.33;;;;;;;11.64;66.55;101430.81;5100249;28;20055;-66
2021/10/17 02:42:25;;;;;;;17.13;9.57;;;;;;;11.91;65.87;101435.56;5115024;28;20051;-66
2021/10/17 02:44:52;;;;;;;19.95;9.55;;;;;;;11.72;66.07;101438.41;5116290;28;20452;-65
2021/10/17 02:47:20;;;;;;;22.55;9.88;;;;;;;11.74;66.14;101427.88;5115833;28;20051;-66
2021/10/17 02:49:47;;;;;;;21.92;11.43;;;;;;;11.71;66.25;101427.66;5115154;28;20039;-66
2021/10/17 02:52:17;;;;;;;;;;;;;;;11.84;66.25;101429.59;5115573;28;20387;-66
2021/10/17 02:54:45;;;;;;;16.35;9.00;;;;;;;11.78;66.08;101423.38;5114892;28;19939;-67
2021/10/17 02:57:12;;;;;;;17.85;10.18;;;;;;;11.78;65.81;101417.88;5131928;27;20051;-67
2021/10/17 02:59:40;;;;;;;17.60;10.48;;;;;;;11.73;66.04;101420.72;5115013;28;20360;-65
2021/10/17 03:02:08;;;;;;;18.38;9.88;;;;;;;11.66;66.35;101419.47;5114658;28;20051;-67
2021/10/17 03:04:36;;;;;;;20.48;9.93;;;;;;;11.63;66.46;101418.09;5131867;27;20524;-65
2021/10/17 03:07:03;;;;;;;20.38;9.93;;;;;;;11.42;67.27;101421.53;5113856;28;20055;-65
2021/10/17 03:09:35;;;;;;;17.42;9.30;;;;;;;11.55;66.81;101423.50;5114708;28;20051;-65
2021/10/17 03:12:04;;;;;;;18.30;10.18;;;;;;;11.25;67.94;101422.91;5114714;28;20063;-65
2021/10/17 03:14:32;;;;;;;19.20;9.25;;;;;;;11.14;68.60;101432.44;5114469;28;20055;-66
2021/10/17 03:17:00;;;;;;;16.08;9.77;;;;;;;11.07;69.06;101433.97;5097607;28;20051;-65
2021/10/17 03:19:27;;;;;;;14.88;9.15;;;;;;;11.03;69.28;101421.88;5114620;28;20047;-65
2021/10/17 03:21:55;;;;;;;18.92;9.63;;;;;;;11.23;68.71;101418.78;5115850;28;20055;-66
2021/10/17 03:24:23;;;;;;;17.65;9.02;;;;;;;11.30;68.23;101422.81;5114462;28;20047;-66
2021/10/17 03:26:50;;;;;;;17.50;10.18;;;;;;;11.25;68.47;101417.38;5115372;28;20050;-66
2021/10/17 03:29:18;;;;;;;21.00;9.57;;;;;;;11.40;67.77;101413.56;5114244;28;20376;-62
2021/10/17 03:31:50;;;;;;;16.30;9.48;;;;;;;11.35;67.97;101408.94;5095280;28;20045;-63
2021/10/17 03:34:17;;;;;;;15.32;9.13;;;;;;;11.47;67.43;101413.16;5073826;28;20048;-63
2021/10/17 03:36:45;;;;;;;20.50;10.38;;;;;;;11.42;67.63;101411.28;5073448;28;20048;-63
2021/10/17 03:39:12;;;;;;;22.52;10.18;;;;;;;11.32;67.93;101404.03;5088488;28;20044;-63
2021/10/17 03:41:39;;;;;;;18.88;9.93;;;;;;;11.17;68.93;101403.47;5115733;28;20395;-63
2021/10/17 03:44:06;;;;;;;17.17;10.07;;;;;;;11.14;68.92;101410.38;5115642;28;20048;-62
2021/10/17 03:46:34;;;;;;;16.55;10.23;;;;;;;11.18;68.83;101411.44;5113972;28;20051;-63
2021/10/17 03:49:02;;;;;;;18.23;10.30;;;;;;;11.23;68.69;101400.31;5114314;28;20050;-63
2021/10/17 03:51:30;;;;;;;19.50;9.73;;;;;;;10.95;69.27;101401.31;5101880;28;20056;-63
2021/10/17 03:54:01;;;;;;;18.13;9.73;;;;;;;11.09;69.03;101396.69;5118450;28;20051;-66
2021/10/17 03:56:29;;;;;;;18.63;9.90;;;;;;;10.71;70.02;101403.34;5118168;28;20549;-66
2021/10/17 03:58:56;;;;;;;19.35;9.18;;;;;;;10.85;70.15;101401.47;5117934;28;20121;-67
2021/10/17 04:01:25;;;;;;;19.75;10.00;;;;;;;10.96;69.73;101404.91;5101483;28;20063;-62
2021/10/17 04:03:53;;;;;;;18.65;10.50;;;;;;;10.90;69.58;101409.66;5117904;28;20052;-62
2021/10/17 04:06:20;;;;;;;18.52;10.38;;;;;;;10.83;70.19;101400.97;5118055;28;20044;-63
2021/10/17 04:08:55;;;;;;;21.38;10.05;;;;;;;11.01;69.44;101400.13;5117773;28;20044;-62
2021/10/17 04:11:22;;;;;;;19.90;10.10;;;;;;;11.08;69.26;101405.25;5117639;28;20056;-64
2021/10/17 04:13:50;;;;;;;19.42;10.07;;;;;;;10.79;69.99;101404.63;5118163;28;20054;-63
2021/10/17 04:16:17;;;;;;;17.63;9.52;;;;;;;10.95;69.96;101404.06;5118094;28;20047;-63
2021/10/17 04:18:44;;;;;;;18.52;11.27;;;;;;;10.82;70.32;101395.75;5100989;28;20538;-64
2021/10/17 04:21:12;;;;;;;25.30;11.20;;;;;;;10.86;70.03;101392.09;5117986;28;20051;-66
2021/10/17 04:23:39;;;;;;;17.95;10.68;;;;;;;10.94;69.96;101391.44;5100878;28;20052;-68
2021/10/17 04:26:07;;;;;;;21.42;11.43;;;;;;;10.83;69.96;101398.19;5101112;28;20054;-65
2021/10/17 04:28:39;;;;;;;18.77;10.43;;;;;;;10.58;70.84;101406.03;5116687;28;20421;-66
2021/10/17 04:31:07;;;;;;;20.98;11.15;;;;;;;10.52;71.54;101410.78;5100800;28;20062;-65
2021/10/17 04:33:34;;;;;;;18.05;10.18;;;;;;;10.64;71.23;101408.41;5117678;28;20059;-66
2021/10/17 04:36:02;;;;;;;20.42;10.98;;;;;;;10.43;71.68;101411.72;5118989;28;20055;-66
2021/10/17 04:38:29;;;;;;;25.05;11.88;;;;;;;10.38;72.26;101407.09;5116642;28;20052;-66
2021/10/17 04:40:56;;;;;;;22.52;10.65;;;;;;;10.36;72.05;101408.50;5097312;28;20056;-66
2021/10/17 04:43:23;;;;;;;17.88;10.85;;;;;;;10.40;72.12;101401.31;5098363;28;20052;-66
2021/10/17 04:45:51;;;;;;;26.90;10.68;;;;;;;10.45;71.75;101393.78;5098384;28;20056;-66
2021/10/17 04:48:18;;;;;;;20.83;10.10;;;;;;;10.70;70.96;101398.13;5097852;28;20136;-65
2021/10/17 04:50:46;;;;;;;17.70;10.10;;;;;;;10.81;70.05;101391.38;5097019;28;20052;-65
2021/10/17 04:53:13;;;;;;;17.52;10.30;;;;;;;10.54;70.85;101399.47;5098150;28;20051;-65
2021/10/17 04:55:40;;;;;;;21.60;11.50;;;;;;;10.25;71.82;101404.25;5080084;28;20048;-66
2021/10/17 04:58:10;;;;;;;20.60;11.00;;;;;;;10.16;72.61;101410.41;5096450;28;20048;-66
2021/10/17 05:00:38;;;;;;;21.65;11.13;;;;;;;10.30;72.42;101418.78;5096636;28;20056;-66
2021/10/17 05:03:06;;;;;;;18.58;10.85;;;;;;;10.31;72.49;101417.66;5096679;28;20067;-66
2021/10/17 05:05:33;;;;;;;23.08;11.05;;;;;;;10.67;70.95;101410.56;5096746;28;20522;-67
2021/10/17 05:08:03;;;;;;;17.88;10.95;;;;;;;10.63;70.77;101408.69;5063421;28;20044;-66
2021/10/17 05:10:35;;;;;;;15.43;10.30;;;;;;;10.43;71.09;101409.78;5096470;28;20059;-66
2021/10/17 05:13:03;;;;;;;19.23;10.43;;;;;;;10.39;71.31;101418.94;5088898;28;20052;-66
2021/10/17 05:15:31;;;;;;;24.63;11.38;;;;;;;10.65;71.10;101412.78;5076070;28;20182;-65
2021/10/17 05:17:58;;;;;;;21.83;10.57;;;;;;;10.70;70.55;101412.75;5076028;28;20055;-66
2021/10/17 05:20:25;;;;;;;21.02;10.80;;;;;;;10.79;69.94;101418.41;5076392;28;20053;-67
2021/10/17 05:22:54;;;;;;;21.60;10.43;;;;;;;10.83;70.19;101411.16;5076471;28;20044;-66
2021/10/17 05:25:22;;;;;;;19.83;10.48;;;;;;;10.66;70.42;101408.09;5076190;28;20655;-66
2021/10/17 05:27:49;;;;;;;15.93;9.77;;;;;;;10.65;70.56;101410.03;5075626;28;20056;-66
2021/10/17 05:30:17;;;;;;;18.67;10.07;;;;;;;10.47;71.02;101412.78;5088282;28;20406;-66
2021/10/17 05:32:44;;;;;;;15.05;10.30;;;;;;;10.69;70.39;101415.75;5096210;28;20522;-66
2021/10/17 05:35:11;;;;;;;18.83;9.75;;;;;;;10.85;70.06;101415.25;5095987;28;20052;-65
2021/10/17 05:37:39;;;;;;;19.08;10.23;;;;;;;10.99;69.42;101418.91;5095139;28;20082;-66
2021/10/17 05:40:07;;;;;;;20.60;10.52;;;;;;;10.98;68.86;101408.97;5110270;28;20047;-66
2021/10/17 05:42:38;;;;;;;20.42;11.43;;;;;;;10.87;69.16;101417.72;5099277;28;20466;-66
2021/10/17 05:45:07;;;;;;;19.75;10.70;;;;;;;10.62;70.26;101423.56;5116158;28;20051;-66
2021/10/17 05:47:34;;;;;;;20.90;10.50;;;;;;;10.66;70.17;101417.19;5116119;28;20411;-66
2021/10/17 05:50:03;;;;;;;20.40;11.25;;;;;;;10.78;69.73;101419.50;5098792;28;20067;-66
2021/10/17 05:52:31;;;;;;;18.88;10.57;;;;;;;10.75;69.40;101412.66;5116520;28;20058;-65
2021/10/17 05:54:59;;;;;;;19.70;11.48;;;;;;;10.51;70.13;101411.91;5082573;28;20047;-66
2021/10/17 05:57:26;;;;;;;24.25;10.63;;;;;;;10.48;70.34;101417.97;5116188;28;20050;-65
2021/10/17 05:59:54;;;;;;;20.00;10.80;;;;;;;10.49;70.21;101425.16;5116436;28;20092;-67
2021/10/17 06:02:21;;;;;;;20.70;11.65;;;;;;;10.42;70.64;101416.44;5117855;28;20490;-66
2021/10/17 06:04:51;;;;;;;22.88;11.25;;;;;;;10.54;70.31;101422.31;5099027;28;20055;-67
2021/10/17 06:07:24;;;;;;;21.42;11.25;;;;;;;10.66;69.90;101419.94;5100251;28;20051;-66
2021/10/17 06:09:51;;;;;;;17.45;11.40;;;;;;;10.66;69.63;101419.94;5116332;28;20055;-66
2021/10/17 06:12:24;;;;;;;20.08;11.85;;;;;;;10.56;70.02;101417.34;5115706;28;20054;-68
2021/10/17 06:14:52;;;;;;;15.90;10.68;;;;;;;10.63;69.80;101433.50;5117593;28;20051;-67
2021/10/17 06:17:19;;;;;;;19.90;10.98;;;;;;;10.44;70.10;101433.47;5116184;28;20434;-67
2021/10/17 06:19:47;;;;;;;21.05;11.55;;;;;;;10.55;69.98;101432.22;5116016;28;20039;-67
2021/10/17 06:22:15;;;;;;;22.20;11.02;;;;;;;10.41;70.09;101433.25;5098926;28;20047;-66
2021/10/17 06:24:46;;;;;;;21.90;11.60;;;;;;;10.35;70.68;101434.41;5098384;28;20051;-66
2021/10/17 06:27:14;;;;;;;18.17;12.18;;;;;;;10.42;70.44;101443.97;5115439;28;20129;-67
2021/10/17 06:29:44;;;;;;;21.85;12.10;;;;;;;10.35;70.68;101439.91;5115892;28;20497;-66
2021/10/17 06:32:11;;;;;;;27.10;11.57;;;;;;;10.44;70.27;101438.16;5115989;27;20051;-68
2021/10/17 06:34:42;;;;;;;;;;;;;;;10.24;70.85;101441.97;5116540;28;20058;-66
2021/10/17 06:37:09;;;;;;;23.48;11.77;;;;;;;10.32;70.91;101443.28;5133009;27;19919;-66
2021/10/17 06:39:38;;;;;;;20.35;12.23;;;;;;;10.20;71.43;101446.41;5091680;28;20045;-66
2021/10/17 06:42:08;;;;;;;24.52;12.23;;;;;;;10.18;71.27;101454.19;5074986;28;20520;-67
2021/10/17 06:45:02;;;;;;;18.65;11.70;;;;;;;10.50;70.70;101459.81;5074979;28;20056;-67
2021/10/17 06:47:30;;;;;;;17.77;12.52;;;;;;;10.32;70.81;101462.53;5074598;28;20048;-65
2021/10/17 06:49:57;;;;;;;21.70;11.48;;;;;;;10.36;70.39;101466.34;5091262;28;20048;-66
2021/10/17 06:52:25;;;;;;;22.70;12.32;;;;;;;10.28;70.98;101470.56;5094273;28;20532;-66
2021/10/17 06:54:52;;;;;;;24.67;11.85;;;;;;;10.26;71.08;101472.78;5093138;28;20036;-68
2021/10/17 06:57:20;;;;;;;24.20;11.73;;;;;;;10.23;71.26;101472.56;5096433;28;20052;-66
2021/10/17 06:59:47;;;;;;;20.15;11.65;;;;;;;10.48;70.10;101472.28;5093451;28;20033;-66
2021/10/17 07:02:15;;;;;;;27.40;12.25;;;;;;;10.27;71.26;101473.63;5093318;28;20052;-66
2021/10/17 07:04:43;;;;;;;19.30;10.90;;;;;;;10.26;71.29;101481.06;5093468;28;20059;-66
2021/10/17 07:07:11;;;;;;;28.08;12.38;;;;;;;10.46;70.55;101486.31;5097193;28;20052;-66
2021/10/17 07:09:39;;;;;;;22.02;12.43;;;;;;;10.56;70.21;101480.69;5082974;27;20515;-66
2021/10/17 07:12:11;;;;;;;20.85;11.52;;;;;;;10.54;70.10;101479.34;5041803;28;20627;-66
2021/10/17 07:14:38;;;;;;;23.30;12.75;;;;;;;10.41;70.58;101478.13;5039781;28;20052;-66
2021/10/17 07:17:34;;;;;;;21.77;12.05;;;;;;;10.53;70.23;101472.19;5047989;28;21094;-66
2021/10/17 07:20:03;;;;;;;18.63;11.90;;;;;;;10.34;70.23;101482.34;5050924;28;20480;-66
2021/10/17 07:22:33;;;;;;;20.98;12.80;;;;;;;10.15;71.15;101487.78;5033771;28;20048;-66
2021/10/17 07:25:00;;;;;;;22.33;12.25;;;;;;;10.30;71.11;101479.38;5060013;28;20064;-66
2021/10/17 07:27:28;;;;;;;16.42;11.20;;;;;;;10.08;71.61;101481.75;5049811;28;20061;-67
2021/10/17 07:29:55;;;;;;;15.93;10.63;;;;;;;10.18;71.32;101487.22;5056479;28;20045;-66
2021/10/17 07:32:22;;;;;;;22.00;11.00;;;;;;;10.30;71.39;101481.28;5069899;28;20493;-66
2021/10/17 07:34:50;;;;;;;22.50;11.77;;;;;;;10.39;70.48;101485.84;5049017;28;20053;-67
2021/10/17 07:37:22;;;;;;;21.25;10.48;;;;;;;10.37;70.66;101481.75;5053268;28;20056;-66
2021/10/17 07:39:49;;;;;;;20.38;9.95;;;;;;;10.38;70.60;101489.72;5066507;28;20052;-66
2021/10/17 07:42:17;;;;;;;18.60;10.38;;;;;;;10.30;70.88;101492.31;5061801;28;20053;-63
2021/10/17 07:44:47;;;;;;;;;;;;;;;10.16;71.16;101492.19;5072571;28;20060;-63
2021/10/17 07:47:17;;;;;;;16.55;10.32;;;;;;;10.41;71.73;101488.31;5056091;28;19921;-63
2021/10/17 07:50:06;;;;;;;22.60;11.10;;;;;;;10.42;72.72;101488.03;5053304;28;20045;-65
2021/10/17 07:52:38;;;;;;;18.80;10.70;;;;;;;10.44;72.17;101493.25;5036588;28;20057;-66
2021/10/17 07:55:16;;;;;;;16.50;10.10;;;;;;;10.72;70.66;101495.09;5069865;28;20056;-65
2021/10/17 07:57:55;;;;;;;17.75;10.68;;;;;;;11.25;71.45;101485.50;5034480;28;20049;-66
2021/10/17 08:00:27;;;;;;;20.45;10.57;;;;;;;11.30;69.93;101488.19;5051363;28;20041;-65
2021/10/17 08:03:13;;;;;;;17.33;10.18;;;;;;;11.73;67.56;101477.84;5054299;28;20061;-63
2021/10/17 08:05:45;;;;;;;23.30;13.60;;;;;;;11.85;69.43;101476.25;5053056;28;20416;-64
2021/10/17 08:08:18;;;;;;;18.33;10.52;;;;;;;11.72;68.30;101479.78;5067388;28;20285;-63
2021/10/17 08:10:46;;;;;;;17.90;10.15;;;;;;;11.75;68.70;101476.41;5062285;28;20048;-64
2021/10/17 08:13:16;;;;;;;17.65;10.32;;;;;;;11.87;66.65;101471.22;5011157;28;20390;-72
2021/10/17 08:15:51;;;;;;;21.63;12.35;;;;;;;12.00;66.15;101475.97;5043222;28;20052;-72
2021/10/17 08:18:22;;;;;;;17.70;11.40;;;;;;;11.73;65.31;101478.69;5031305;28;20056;-71
2021/10/17 08:20:56;;;;;;;17.05;10.57;;;;;;;12.01;66.01;101485.09;5041020;28;20045;-72
2021/10/17 08:23:24;;;;;;;21.23;10.45;;;;;;;12.26;64.12;101484.59;5040492;28;20388;-66
2021/10/17 08:25:52;;;;;;;18.27;9.98;;;;;;;12.13;63.96;101485.41;5053136;28;20056;-66
2021/10/17 08:28:20;;;;;;;21.13;12.68;;;;;;;12.14;64.11;101482.34;5054156;28;20072;-66
2021/10/17 08:31:00;;;;;;;16.27;10.70;;;;;;;12.01;63.94;101480.34;5068691;28;20054;-67
2021/10/17 08:33:28;;;;;;;17.67;10.15;;;;;;;12.00;63.60;101470.44;5045242;28;20054;-67
2021/10/17 08:35:56;;;;;;;16.38;9.85;;;;;;;12.24;62.58;101473.00;5070938;28;20040;-66
2021/10/17 08:38:27;;;;;;;21.65;11.45;;;;;;;12.20;63.57;101472.00;5059656;28;20440;-66
2021/10/17 08:40:59;;;;;;;16.40;10.30;;;;;;;12.02;63.10;101464.63;5044859;28;20511;-67
2021/10/17 08:43:42;;;;;;;18.60;9.70;;;;;;;11.89;63.31;101466.22;5056595;28;20059;-65
2021/10/17 08:46:20;;;;;;;14.23;9.98;;;;;;;11.85;63.49;101464.38;5052912;28;20049;-66
2021/10/17 08:48:57;;;;;;;14.20;8.95;;;;;;;12.10;62.13;101464.72;5057478;28;20064;-67
2021/10/17 08:51:27;;;;;;;13.73;8.23;;;;;;;12.27;62.08;101462.19;5063610;28;20057;-67
2021/10/17 08:54:06;;;;;;;14.73;8.60;;;;;;;12.60;60.97;101465.66;5056370;28;20411;-66
2021/10/17 08:56:43;;;;;;;14.48;8.50;;;;;;;12.55;60.16;101467.72;5060356;28;20033;-67
2021/10/17 08:59:15;;;;;;;15.82;8.52;;;;;;;12.72;60.19;101465.13;5058961;28;20064;-66
2021/10/17 09:01:49;;;;;;;13.80;8.57;;;;;;;13.02;59.50;101467.25;5056806;28;20048;-66
2021/10/17 09:04:26;;;;;;;17.15;8.32;;;;;;;12.67;59.05;101468.00;5052477;28;20053;-64
2021/10/17 09:07:18;;;;;;;17.38;8.57;;;;;;;12.75;59.14;101465.31;5039034;28;20060;-65
2021/10/17 09:10:13;;;;;;;16.38;8.73;;;;;;;12.91;59.29;101472.16;5051877;28;20057;-66
2021/10/17 09:12:46;;;;;;;13.60;8.18;;;;;;;13.05;58.60;101472.16;5052882;28;20629;-66
2021/10/17 09:15:30;;;;;;;18.02;8.15;;;;;;;12.94;58.87;101470.72;5057661;28;20048;-65
2021/10/17 09:18:09;;;;;;;13.13;8.10;;;;;;;13.23;58.34;101471.19;5043587;28;20052;-66
2021/10/17 09:20:46;;;;;;;14.73;8.88;;;;;;;13.09;57.68;101464.88;5055613;28;20067;-67
2021/10/17 09:23:15;;;;;;;12.45;7.88;;;;;;;13.03;57.65;101466.09;5056016;28;20543;-64
2021/10/17 09:25:43;;;;;;;14.00;7.93;;;;;;;13.17;57.12;101467.72;5055457;28;20056;-64
2021/10/17 09:28:14;;;;;;;13.60;7.72;;;;;;;13.29;57.26;101469.91;5062558;28;20049;-65
2021/10/17 09:31:09;;;;;;;13.23;7.60;;;;;;;13.14;57.13;101473.06;5055765;28;20048;-65
2021/10/17 09:33:53;;;;;;;14.00;7.65;;;;;;;13.08;57.74;101466.81;5056766;28;20041;-67
2021/10/17 09:36:25;;;;;;;14.43;7.50;;;;;;;13.18;58.16;101463.81;5064188;28;20049;-65
2021/10/17 09:39:31;;;;;;;12.32;7.72;;;;;;;13.19;57.53;101465.47;5049064;28;20056;-66
2021/10/17 09:42:19;;;;;;;13.20;7.28;;;;;;;13.22;57.92;101462.06;5055464;28;20053;-65
2021/10/17 09:44:51;;;;;;;15.50;8.40;;;;;;;13.05;57.10;101464.69;5053481;28;20049;-65
2021/10/17 09:47:18;;;;;;;17.70;8.50;;;;;;;13.28;56.55;101457.22;5054941;28;20053;-65
2021/10/17 09:49:47;;;;;;;15.05;7.82;;;;;;;13.29;57.10;101447.78;5056140;28;20048;-64
2021/10/17 09:52:17;;;;;;;16.30;7.90;;;;;;;13.15;56.59;101445.06;5053852;28;20049;-65
2021/10/17 09:54:50;;;;;;;14.27;7.82;;;;;;;13.11;57.52;101451.56;5050685;28;20412;-65
2021/10/17 09:57:17;;;;;;;17.30;9.98;;;;;;;13.22;56.73;101456.53;5054759;28;20503;-65
2021/10/17 09:59:45;;;;;;;17.15;7.93;;;;;;;13.70;55.28;101450.38;5050218;28;20049;-68
2021/10/17 10:02:14;;;;;;;11.57;7.15;;;;;;;13.85;55.41;101438.88;5051613;28;20055;-67
2021/10/17 10:04:45;;;;;;;10.45;6.63;;;;;;;14.00;54.82;101446.78;5056226;28;20064;-67
2021/10/17 10:07:16;;;;;;;10.23;6.40;;;;;;;14.31;52.71;101453.16;5056498;28;20178;-68
2021/10/17 10:09:47;;;;;;;14.73;7.90;;;;;;;13.80;54.18;101448.16;5078673;28;20488;-68
2021/10/17 10:12:17;;;;;;;10.35;6.40;;;;;;;13.78;53.79;101452.34;5054490;28;20061;-69
2021/10/17 10:14:47;;;;;;;;;;;;;;;13.99;54.03;101457.03;5066314;28;20053;-71
2021/10/17 10:17:16;;;;;;;9.73;6.00;;;;;;;14.20;52.97;101457.31;5049121;28;19928;-67
2021/10/17 10:19:44;;;;;;;13.70;6.03;;;;;;;14.29;52.35;101458.19;5055064;28;20045;-69
2021/10/17 10:22:16;;;;;;;12.38;5.70;;;;;;;14.41;52.03;101450.09;5054968;28;20048;-67
2021/10/17 10:24:48;;;;;;;10.18;5.70;;;;;;;14.66;51.59;101457.66;5064413;28;20052;-70
2021/10/17 10:27:16;;;;;;;12.60;5.88;;;;;;;14.46;51.08;101456.28;5041799;28;20056;-70
2021/10/17 10:29:44;;;;;;;12.00;6.03;;;;;;;14.05;52.38;101449.41;5065218;28;21669;-68
2021/10/17 10:32:22;;;;;;;9.65;5.78;;;;;;;14.09;52.13;101455.94;5066771;28;20048;-66
2021/10/17 10:34:51;;;;;;;10.40;5.55;;;;;;;14.12;52.00;101450.56;5066247;28;20056;-72
2021/10/17 10:37:21;;;;;;;10.80;5.88;;;;;;;14.40;51.87;101449.25;5071069;28;20056;-72
2021/10/17 10:40:03;;;;;;;12.63;5.53;;;;;;;14.85;49.89;101443.50;5072326;28;20048;-73
2021/10/17 10:42:38;;;;;;;14.75;5.28;;;;;;;14.81;52.13;101446.09;5058194;28;20415;-71
2021/10/17 10:45:24;;;;;;;10.68;5.10;;;;;;;14.60;50.55;101445.91;5052985;28;20097;-72
2021/10/17 10:48:11;;;;;;;9.30;5.10;;;;;;;14.85;51.40;101455.41;5056273;28;20057;-70
2021/10/17 10:50:47;;;;;;;8.35;5.22;;;;;;;14.96;49.63;101459.50;5043710;28;20388;-65
2021/10/17 10:53:46;;;;;;;7.95;4.90;;;;;;;15.34;50.00;101454.13;5055477;28;20060;-65
2021/10/17 10:56:38;;;;;;;9.50;5.18;;;;;;;15.22;48.73;101445.66;5055350;28;20373;-65
2021/10/17 10:59:07;;;;;;;10.23;5.07;;;;;;;15.28;49.36;101441.56;5052687;28;20053;-66
2021/10/17 11:01:54;;;;;;;13.80;5.28;;;;;;;15.62;48.43;101441.56;5053985;28;20041;-66
2021/10/17 11:04:44;;;;;;;14.65;5.70;;;;;;;15.71;48.21;101429.28;5055259;28;20049;-70
2021/10/17 11:07:22;;;;;;;8.82;5.13;;;;;;;15.66;48.43;101446.13;5048618;28;20057;-71
2021/10/17 11:09:52;;;;;;;10.13;5.40;;;;;;;15.66;48.59;101443.34;5033535;28;20057;-72
2021/10/17 11:12:45;;;;;;;9.40;5.00;;;;;;;15.81;47.84;101441.19;5033426;28;20060;-70
2021/10/17 11:15:15;;;;;;;9.30;4.88;;;;;;;15.90;48.17;101434.44;5017767;28;20148;-70
2021/10/17 11:17:53;;;;;;;9.60;5.03;;;;;;;15.66;48.36;101443.34;5035290;28;20054;-73
2021/10/17 11:20:26;;;;;;;10.27;4.68;;;;;;;15.60;48.81;101446.63;5057289;28;20049;-69
2021/10/17 11:22:55;;;;;;;10.00;4.88;;;;;;;15.67;48.84;101447.75;5043386;28;20045;-69
2021/10/17 11:25:24;;;;;;;9.68;4.45;;;;;;;15.57;49.62;101448.09;5037066;28;20049;-68
2021/10/17 11:27:53;;;;;;;10.68;5.53;;;;;;;15.46;49.51;101440.44;5063710;28;20053;-69
2021/10/17 11:30:26;;;;;;;8.23;4.40;;;;;;;15.43;48.50;101444.69;5067565;28;20052;-67